Time;durP1;ratioP1;P1;durP2;ratioP2;P2;SDS_P1;SDS_P2;PMS_P1;PMS_P2;Temp;Humidity;BMP_temperature;BMP_pressure;BME280_temperature;BME280_humidity;BME280_pressure;Samples;Min_cycle;Max_cycle;Signal;HPM_P1;HPM_P2
2023/12/06 00:00:05;;;;;;;1.37;1.10;;;;;;;7.91;59.15;96757.88;5068649;28;20879;-71
2023/12/06 00:02:32;;;;;;;1.70;1.27;;;;;;;8.00;58.82;96759.63;5060504;28;20734;-72
2023/12/06 00:04:59;;;;;;;1.67;0.90;;;;;;;7.99;59.03;96756.19;5068911;28;20416;-72
2023/12/06 00:07:24;;;;;;;1.67;1.27;;;;;;;7.88;58.93;96760.78;5068897;28;20429;-72
2023/12/06 00:09:49;;;;;;;0.97;0.87;;;;;;;8.01;58.73;96763.88;5059498;28;20829;-72
2023/12/06 00:12:15;;;;;;;1.40;1.07;;;;;;;7.98;59.23;96765.00;5063023;28;20238;-72
2023/12/06 00:14:40;;;;;;;1.20;1.00;;;;;;;8.07;58.97;96763.25;5048084;28;20222;-71
2023/12/06 00:17:06;;;;;;;1.30;1.13;;;;;;;8.06;58.79;96766.03;5056702;28;20202;-72
2023/12/06 00:19:31;;;;;;;1.30;1.20;;;;;;;8.08;58.94;96762.28;5067412;28;20209;-71
2023/12/06 00:21:56;;;;;;;1.87;1.10;;;;;;;8.08;58.52;96770.13;5048669;28;20203;-74
2023/12/06 00:24:22;;;;;;;1.30;0.90;;;;;;;8.03;58.47;96767.16;5068467;28;20296;-71
2023/12/06 00:26:48;;;;;;;3.43;1.17;;;;;;;8.07;59.12;96768.47;5061626;28;20182;-72
2023/12/06 00:29:13;;;;;;;1.20;1.10;;;;;;;8.12;58.78;96768.88;5062521;28;20850;-71
2023/12/06 00:31:39;;;;;;;1.97;1.00;;;;;;;8.13;59.03;96761.84;5047390;28;20911;-73
2023/12/06 00:34:04;;;;;;;1.40;1.10;;;;;;;8.13;58.22;96772.28;5068180;28;20364;-71
2023/12/06 00:36:30;;;;;;;1.73;1.20;;;;;;;8.17;58.47;96772.84;5068778;28;20281;-71
2023/12/06 00:38:55;;;;;;;2.10;1.10;;;;;;;8.24;58.67;96768.66;5054369;28;20294;-72
2023/12/06 00:41:24;;;;;;;1.00;0.90;;;;;;;8.19;58.26;96773.53;5068193;28;20213;-73
2023/12/06 00:43:51;;;;;;;1.80;1.20;;;;;;;8.15;57.90;96783.41;5063714;28;20202;-71
2023/12/06 00:46:17;;;;;;;1.20;1.03;;;;;;;8.20;58.40;96770.75;5059247;28;20482;-71
2023/12/06 00:48:42;;;;;;;1.67;1.10;;;;;;;8.18;58.12;96775.28;5067485;28;20423;-70
2023/12/06 00:51:08;;;;;;;1.67;0.90;;;;;;;8.19;58.09;96783.97;5060248;28;20517;-73
2023/12/06 00:53:33;;;;;;;1.10;0.93;;;;;;;8.23;58.10;96780.06;5068244;28;20198;-72
2023/12/06 00:55:59;;;;;;;1.80;1.03;;;;;;;8.17;58.54;96778.88;5067752;28;20178;-72
2023/12/06 00:58:24;;;;;;;1.10;0.80;;;;;;;8.24;58.13;96779.09;5067324;28;20266;-72
2023/12/06 01:00:50;;;;;;;1.43;1.00;;;;;;;8.26;58.03;96782.38;5065650;28;20273;-73
2023/12/06 01:03:15;;;;;;;4.70;0.90;;;;;;;8.24;57.76;96786.94;5068311;28;20241;-71
2023/12/06 01:05:41;;;;;;;1.00;0.80;;;;;;;8.22;58.26;96792.31;5067826;28;20316;-72
2023/12/06 01:08:06;;;;;;;1.50;0.90;;;;;;;8.23;59.01;96787.91;5068102;28;20224;-74
2023/12/06 01:10:33;;;;;;;1.00;0.90;;;;;;;8.26;58.72;96792.84;5060427;28;20563;-72
2023/12/06 01:12:59;;;;;;;1.30;0.90;;;;;;;8.08;58.27;96800.63;5067338;28;20221;-71
2023/12/06 01:15:24;;;;;;;1.40;0.90;;;;;;;8.01;59.33;96797.78;5065461;28;20868;-72
2023/12/06 01:17:50;;;;;;;1.20;0.97;;;;;;;8.12;59.03;96799.38;5059194;28;20238;-72
2023/12/06 01:20:15;;;;;;;1.50;1.10;;;;;;;8.08;59.45;96798.03;5067830;28;20183;-71
2023/12/06 01:22:41;;;;;;;1.00;0.80;;;;;;;8.12;59.28;96805.41;5066497;28;20193;-71
2023/12/06 01:25:06;;;;;;;1.00;0.80;;;;;;;8.15;58.75;96802.53;5062232;28;20224;-71
2023/12/06 01:27:33;;;;;;;1.03;0.80;;;;;;;8.15;59.34;96818.19;5043957;28;20656;-71
2023/12/06 01:29:59;;;;;;;1.30;0.90;;;;;;;8.12;59.69;96815.84;5064312;28;20217;-73
2023/12/06 01:32:24;;;;;;;1.10;1.00;;;;;;;8.15;59.25;96812.97;5071880;28;20507;-73
2023/12/06 01:34:50;;;;;;;1.20;0.93;;;;;;;8.21;59.38;96818.53;5063390;28;20230;-72
2023/12/06 01:37:15;;;;;;;1.10;0.90;;;;;;;8.22;58.98;96814.97;5071835;28;20191;-71
2023/12/06 01:39:40;;;;;;;1.20;0.90;;;;;;;8.24;59.35;96818.25;5070033;28;20261;-72
2023/12/06 01:42:06;;;;;;;1.33;1.17;;;;;;;8.23;58.98;96821.84;5067829;28;20210;-71
2023/12/06 01:44:31;;;;;;;1.50;0.80;;;;;;;8.23;59.21;96816.63;5071676;28;20272;-71
2023/12/06 01:46:57;;;;;;;3.73;1.00;;;;;;;8.24;58.96;96824.31;5064035;28;20746;-71
2023/12/06 01:49:23;;;;;;;1.10;0.80;;;;;;;8.19;59.14;96826.53;5071614;28;20185;-72
2023/12/06 01:51:48;;;;;;;1.10;0.90;;;;;;;8.23;59.71;96832.28;5052696;28;20182;-72
2023/12/06 01:54:14;;;;;;;3.20;1.07;;;;;;;8.22;59.66;96830.63;5071433;28;20203;-72
2023/12/06 01:56:42;;;;;;;1.47;0.90;;;;;;;8.22;59.31;96828.88;5052994;28;20285;-70
2023/12/06 01:59:09;;;;;;;1.47;0.90;;;;;;;8.22;59.53;96830.63;5070916;28;20207;-71
2023/12/06 02:01:35;;;;;;;1.97;1.00;;;;;;;8.30;59.17;96833.34;5070237;28;20426;-70
2023/12/06 02:04:00;;;;;;;1.30;0.83;;;;;;;8.27;58.76;96823.19;5062342;28;20966;-72
2023/12/06 02:06:26;;;;;;;1.10;0.83;;;;;;;8.27;58.66;96828.41;5069337;28;20799;-72
2023/12/06 02:08:52;;;;;;;1.10;0.80;;;;;;;8.30;58.56;96834.16;5034549;28;20178;-73
2023/12/06 02:11:17;;;;;;;1.30;1.00;;;;;;;8.27;59.06;96839.66;5065472;28;20179;-71
2023/12/06 02:13:43;;;;;;;1.50;0.90;;;;;;;8.32;58.60;96835.81;5061773;28;20487;-73
2023/12/06 02:16:08;;;;;;;0.90;0.80;;;;;;;8.31;58.78;96842.84;5048234;28;20190;-70
2023/12/06 02:18:34;;;;;;;1.00;0.80;;;;;;;8.29;59.27;96842.16;5053220;28;20217;-72
2023/12/06 02:21:00;;;;;;;1.00;0.70;;;;;;;8.26;59.21;96842.44;5050427;28;20212;-72
2023/12/06 02:23:31;;;;;;;0.90;0.70;;;;;;;8.30;58.89;96841.19;5062479;28;20199;-71
2023/12/06 02:25:56;;;;;;;3.13;0.83;;;;;;;8.34;59.20;96833.88;5067040;28;20228;-72
2023/12/06 02:28:23;;;;;;;1.00;0.80;;;;;;;8.36;58.85;96829.34;5052637;28;20455;-72
2023/12/06 02:30:48;;;;;;;1.27;0.70;;;;;;;8.23;58.82;96835.72;5062264;28;20660;-73
2023/12/06 02:33:14;;;;;;;0.90;0.80;;;;;;;8.17;59.19;96838.09;5070880;28;20474;-73
2023/12/06 02:35:46;;;;;;;1.07;0.70;;;;;;;8.20;58.57;96836.00;5065841;28;20186;-71
2023/12/06 02:38:13;;;;;;;1.20;0.80;;;;;;;8.25;59.07;96835.56;5044465;28;20213;-72
2023/12/06 02:40:39;;;;;;;1.00;0.80;;;;;;;8.17;59.16;96844.13;5043231;28;20414;-73
2023/12/06 02:43:05;;;;;;;1.00;0.70;;;;;;;8.21;58.36;96839.44;5048868;28;20461;-72
2023/12/06 02:45:30;;;;;;;1.80;0.83;;;;;;;8.24;58.87;96842.59;5070609;28;20416;-72
2023/12/06 02:47:56;;;;;;;1.10;0.70;;;;;;;8.12;58.97;96841.16;5069970;28;20604;-72
2023/12/06 02:50:21;;;;;;;1.47;0.70;;;;;;;8.23;59.36;96845.34;5065471;28;20187;-72
2023/12/06 02:52:47;;;;;;;1.00;0.80;;;;;;;8.25;58.31;96840.78;5063415;28;20189;-71
2023/12/06 02:55:12;;;;;;;0.93;0.73;;;;;;;8.28;58.84;96840.50;5070623;28;20178;-72
2023/12/06 02:57:37;;;;;;;0.93;0.80;;;;;;;8.33;58.33;96838.25;5070784;28;20736;-72
2023/12/06 03:00:03;;;;;;;0.83;0.60;;;;;;;8.30;58.11;96844.59;5069770;28;20181;-72
2023/12/06 03:02:29;;;;;;;1.10;1.00;;;;;;;8.33;58.74;96845.28;5070455;28;20182;-74
2023/12/06 03:04:54;;;;;;;1.10;0.80;;;;;;;8.36;58.33;96843.19;5066737;28;20210;-72
2023/12/06 03:07:20;;;;;;;1.47;0.77;;;;;;;8.25;58.71;96846.00;5065876;28;20252;-72
2023/12/06 03:09:45;;;;;;;0.90;0.70;;;;;;;8.23;58.47;96842.72;5068009;28;20269;-72
2023/12/06 03:12:11;;;;;;;0.90;0.70;;;;;;;8.21;58.48;96839.44;5066496;28;20653;-72
2023/12/06 03:14:36;;;;;;;0.90;0.70;;;;;;;8.18;58.24;96839.75;5069367;28;20277;-72
2023/12/06 03:17:02;;;;;;;1.00;0.80;;;;;;;8.29;59.00;96842.97;5067115;28;20246;-71
2023/12/06 03:19:27;;;;;;;1.10;0.80;;;;;;;8.25;57.85;96831.16;5064197;28;20673;-73
2023/12/06 03:21:52;;;;;;;1.03;0.70;;;;;;;8.26;58.67;96839.81;5062910;28;20293;-72
2023/12/06 03:24:18;;;;;;;1.20;0.80;;;;;;;8.20;59.20;96837.78;5062595;28;20576;-70
2023/12/06 03:26:43;;;;;;;1.03;0.80;;;;;;;8.20;58.58;96837.78;5062252;28;20190;-71
2023/12/06 03:29:09;;;;;;;1.00;0.70;;;;;;;8.20;58.33;96838.63;5063583;28;20282;-71
2023/12/06 03:31:34;;;;;;;1.43;0.80;;;;;;;8.17;59.06;96838.09;5070394;28;20189;-72
2023/12/06 03:34:00;;;;;;;3.90;1.23;;;;;;;8.21;59.18;96845.50;5067385;28;20198;-73
2023/12/06 03:36:25;;;;;;;1.27;1.00;;;;;;;8.22;58.82;96841.91;5066640;28;20602;-72
2023/12/06 03:38:50;;;;;;;0.80;0.60;;;;;;;8.25;58.53;96843.41;5068086;28;20297;-71
2023/12/06 03:41:16;;;;;;;0.90;0.70;;;;;;;8.32;58.35;96848.84;5066108;28;20264;-73
2023/12/06 03:43:41;;;;;;;1.17;0.90;;;;;;;8.22;58.40;96847.13;5062927;28;20202;-72
2023/12/06 03:46:08;;;;;;;0.90;0.60;;;;;;;8.29;58.23;96842.97;5064078;28;20174;-71
2023/12/06 03:48:34;;;;;;;0.80;0.60;;;;;;;8.25;58.27;96844.22;5060933;28;20186;-72
2023/12/06 03:50:59;;;;;;;1.13;0.70;;;;;;;8.22;58.08;96846.31;5060241;28;20428;-72
2023/12/06 03:53:24;;;;;;;1.00;0.80;;;;;;;8.24;58.25;96844.38;5067492;28;20289;-71
2023/12/06 03:55:50;;;;;;;0.90;0.70;;;;;;;8.25;58.06;96851.22;5069180;28;20273;-70
2023/12/06 03:58:15;;;;;;;1.10;0.83;;;;;;;8.30;58.30;96846.41;5068811;28;20268;-71
2023/12/06 04:00:41;;;;;;;1.10;0.60;;;;;;;8.33;58.03;96846.09;5050289;28;20259;-72
2023/12/06 04:03:09;;;;;;;0.83;0.60;;;;;;;8.29;57.93;96847.38;5068664;28;20213;-71
2023/12/06 04:05:34;;;;;;;0.80;0.60;;;;;;;8.30;58.14;96833.34;5061631;28;20187;-71
2023/12/06 04:08:00;;;;;;;0.80;0.60;;;;;;;8.33;58.02;96837.44;5053740;28;20421;-73
2023/12/06 04:10:26;;;;;;;0.80;0.50;;;;;;;8.34;58.30;96841.72;5067143;28;20190;-70
2023/12/06 04:12:51;;;;;;;0.97;0.67;;;;;;;8.33;57.93;96835.66;5062746;28;20213;-71
2023/12/06 04:15:16;;;;;;;1.23;0.60;;;;;;;8.27;58.14;96849.31;5068328;28;20239;-71
2023/12/06 04:17:42;;;;;;;0.90;0.70;;;;;;;8.26;58.21;96842.44;5064161;28;20296;-70
2023/12/06 04:20:08;;;;;;;0.90;0.60;;;;;;;8.28;58.17;96845.72;5065760;28;20196;-70
2023/12/06 04:22:34;;;;;;;0.80;0.60;;;;;;;8.24;58.18;96850.44;5065497;28;20856;-71
2023/12/06 04:25:01;;;;;;;0.90;0.60;;;;;;;8.20;57.44;96859.50;5068092;28;20441;-71
2023/12/06 04:27:26;;;;;;;0.90;0.70;;;;;;;8.26;58.09;96850.28;5060397;28;20431;-71
2023/12/06 04:29:51;;;;;;;1.20;0.70;;;;;;;8.24;58.00;96860.88;5060647;28;20515;-72
2023/12/06 04:32:17;;;;;;;3.90;0.60;;;;;;;8.18;58.07;96861.44;5061984;28;20197;-73
2023/12/06 04:34:51;;;;;;;1.03;0.60;;;;;;;8.23;58.03;96863.59;5045377;28;20294;-74
2023/12/06 04:37:16;;;;;;;0.87;0.63;;;;;;;8.20;58.35;96869.94;5056353;28;20241;-72
2023/12/06 04:39:42;;;;;;;0.87;0.60;;;;;;;8.23;57.76;96871.44;5040723;28;20918;-73
2023/12/06 04:42:07;;;;;;;0.80;0.60;;;;;;;8.31;57.92;96876.78;5053395;28;20297;-71
2023/12/06 04:44:33;;;;;;;0.90;0.60;;;;;;;8.32;58.00;96875.78;5069089;28;20205;-72
2023/12/06 04:46:58;;;;;;;0.80;0.60;;;;;;;8.36;56.92;96881.56;5060759;28;20190;-72
2023/12/06 04:49:24;;;;;;;1.20;0.80;;;;;;;8.37;57.97;96886.63;5061782;28;20262;-73
2023/12/06 04:51:49;;;;;;;0.80;0.60;;;;;;;8.39;57.76;96889.06;5060588;28;20218;-70
2023/12/06 04:54:15;;;;;;;0.90;0.60;;;;;;;8.36;57.60;96892.81;5058209;28;20210;-73
2023/12/06 04:56:40;;;;;;;1.00;0.50;;;;;;;8.31;58.08;96892.44;5067322;28;20720;-73
2023/12/06 04:59:05;;;;;;;0.80;0.50;;;;;;;8.36;57.57;96895.41;5068404;28;20630;-72
2023/12/06 05:01:32;;;;;;;1.07;0.60;;;;;;;8.32;57.86;96895.84;5067268;28;20273;-72
2023/12/06 05:03:58;;;;;;;1.00;0.70;;;;;;;8.38;57.60;96892.69;5056733;28;20213;-71
2023/12/06 05:06:23;;;;;;;0.77;0.50;;;;;;;8.43;57.48;96893.88;5045571;28;20421;-72
2023/12/06 05:08:48;;;;;;;0.80;0.50;;;;;;;8.41;57.39;96887.97;5058999;28;20228;-71
2023/12/06 05:11:14;;;;;;;0.80;0.60;;;;;;;8.46;57.43;96893.56;5064228;28;20206;-71
2023/12/06 05:13:39;;;;;;;0.80;0.60;;;;;;;8.40;57.85;96896.78;5059624;28;20293;-71
2023/12/06 05:16:05;;;;;;;0.90;0.60;;;;;;;8.41;57.31;96903.66;5068056;28;20654;-73
2023/12/06 05:18:31;;;;;;;0.80;0.60;;;;;;;8.46;56.91;96896.19;5063055;28;20664;-72
2023/12/06 05:20:56;;;;;;;0.90;0.60;;;;;;;8.32;57.32;96894.06;5061979;28;20619;-72
2023/12/06 05:23:22;;;;;;;0.80;0.60;;;;;;;8.43;57.28;96901.72;5057936;28;20629;-70
2023/12/06 05:25:47;;;;;;;0.80;0.57;;;;;;;8.43;57.47;96904.34;5059684;28;20256;-71
2023/12/06 05:28:13;;;;;;;0.80;0.60;;;;;;;8.44;57.53;96900.72;5064067;28;20175;-71
2023/12/06 05:30:39;;;;;;;1.23;0.70;;;;;;;8.44;57.63;96903.34;5068329;28;20179;-71
2023/12/06 05:33:04;;;;;;;0.80;0.60;;;;;;;8.46;57.44;96900.59;5062876;28;20206;-70
2023/12/06 05:35:30;;;;;;;1.20;0.90;;;;;;;8.48;57.43;96903.09;5062429;28;20503;-71
2023/12/06 05:37:55;;;;;;;0.90;0.60;;;;;;;8.49;57.44;96902.13;5053815;28;20207;-72
2023/12/06 05:40:21;;;;;;;1.37;0.80;;;;;;;8.47;57.11;96891.78;5061772;28;20182;-72
2023/12/06 05:42:46;;;;;;;1.13;0.90;;;;;;;8.50;57.19;96904.59;5056467;28;20720;-71
2023/12/06 05:45:12;;;;;;;2.60;0.70;;;;;;;8.47;57.24;96902.25;5065404;28;20722;-70
2023/12/06 05:47:37;;;;;;;1.00;0.60;;;;;;;8.46;57.60;96897.97;5059714;28;20179;-70
2023/12/06 05:50:03;;;;;;;1.20;0.80;;;;;;;8.49;57.44;96899.50;5057002;28;20175;-69
2023/12/06 05:52:29;;;;;;;1.33;0.80;;;;;;;8.48;56.98;96901.31;5066307;28;20186;-70
2023/12/06 05:54:54;;;;;;;1.43;1.20;;;;;;;8.45;56.79;96907.59;5055311;28;20263;-71
2023/12/06 05:57:20;;;;;;;1.13;0.83;;;;;;;8.50;57.28;96907.22;5046298;28;20179;-69
2023/12/06 05:59:45;;;;;;;1.30;1.10;;;;;;;8.54;57.62;96913.78;5055880;28;20183;-72
2023/12/06 06:02:11;;;;;;;1.00;0.77;;;;;;;8.53;57.25;96914.72;5068095;28;20191;-70
2023/12/06 06:04:36;;;;;;;1.00;0.70;;;;;;;8.50;57.87;96914.22;5067588;28;20754;-70
2023/12/06 06:07:02;;;;;;;1.67;0.90;;;;;;;8.44;57.30;96903.34;5067044;28;20256;-70
2023/12/06 06:09:27;;;;;;;1.00;0.60;;;;;;;8.46;56.76;96917.06;5063672;28;20292;-70
2023/12/06 06:11:53;;;;;;;0.90;0.70;;;;;;;8.50;57.34;96907.22;5068703;28;20260;-70
2023/12/06 06:14:18;;;;;;;1.10;0.80;;;;;;;8.52;57.31;96912.28;5051877;28;20195;-71
2023/12/06 06:16:43;;;;;;;1.17;0.80;;;;;;;8.52;57.19;96909.66;5067614;28;20186;-71
2023/12/06 06:19:09;;;;;;;1.30;0.90;;;;;;;8.54;57.23;96916.38;5068387;28;20203;-70
2023/12/06 06:21:34;;;;;;;1.00;0.80;;;;;;;8.44;57.08;96913.78;5070880;28;20269;-70
2023/12/06 06:24:00;;;;;;;0.93;0.70;;;;;;;8.46;57.55;96922.31;5058857;28;20282;-71
2023/12/06 06:26:25;;;;;;;1.27;0.80;;;;;;;8.46;57.51;96911.03;5068167;28;20210;-70
2023/12/06 06:28:50;;;;;;;1.30;1.00;;;;;;;8.47;57.44;96917.91;5069688;28;20216;-70
2023/12/06 06:31:16;;;;;;;2.70;1.40;;;;;;;8.50;57.15;96917.66;5065196;28;20266;-71
2023/12/06 06:33:41;;;;;;;1.17;1.07;;;;;;;8.53;57.54;96913.94;5076817;28;20202;-72
2023/12/06 06:36:07;;;;;;;1.93;1.20;;;;;;;8.50;57.17;96912.44;5064483;28;20206;-70
2023/12/06 06:38:33;;;;;;;1.37;1.10;;;;;;;8.51;57.68;96918.47;5062535;28;20203;-69
2023/12/06 06:40:58;;;;;;;2.57;1.17;;;;;;;8.49;57.38;96925.63;5068578;28;20178;-71
2023/12/06 06:43:23;;;;;;;1.60;1.20;;;;;;;8.48;57.08;96929.19;5077354;28;20213;-71
2023/12/06 06:45:49;;;;;;;1.73;1.17;;;;;;;8.53;56.87;96937.44;5073193;28;20245;-68
2023/12/06 06:48:14;;;;;;;1.20;1.10;;;;;;;8.50;57.39;96932.50;5053747;28;20273;-69
2023/12/06 06:50:40;;;;;;;1.43;1.00;;;;;;;8.49;57.46;96930.84;5064648;28;20265;-68
2023/12/06 06:53:05;;;;;;;1.40;1.17;;;;;;;8.54;57.03;96933.84;5066201;28;20205;-68
2023/12/06 06:55:31;;;;;;;2.30;1.00;;;;;;;8.49;57.22;96942.13;5067061;28;20191;-70
2023/12/06 06:57:56;;;;;;;2.20;1.03;;;;;;;8.53;57.80;96947.88;5066368;28;20199;-70
2023/12/06 07:00:22;;;;;;;1.10;0.80;;;;;;;8.52;57.33;96948.84;5060128;28;20203;-70
2023/12/06 07:02:48;;;;;;;1.20;0.80;;;;;;;8.48;57.14;96947.47;5071813;28;20205;-69
2023/12/06 07:05:13;;;;;;;1.00;0.70;;;;;;;8.49;57.06;96943.91;5067877;28;20435;-71
2023/12/06 07:07:40;;;;;;;1.70;1.30;;;;;;;8.50;57.44;96958.59;5054118;28;20179;-69
2023/12/06 07:10:06;;;;;;;2.43;1.03;;;;;;;8.51;57.17;96957.66;5053420;28;20174;-70
2023/12/06 07:12:32;;;;;;;1.50;1.00;;;;;;;8.49;57.29;96955.19;5036954;28;20490;-70
2023/12/06 07:14:59;;;;;;;2.10;1.50;;;;;;;8.47;57.59;96954.47;5002654;28;21026;-69
2023/12/06 07:17:25;;;;;;;1.63;1.20;;;;;;;8.51;57.37;96962.88;5070301;28;21003;-71
2023/12/06 07:19:50;;;;;;;1.93;1.30;;;;;;;8.43;57.78;96963.56;5070951;28;20440;-70
2023/12/06 07:22:16;;;;;;;1.30;0.97;;;;;;;8.40;57.33;96962.06;5068900;28;20424;-70
2023/12/06 07:24:41;;;;;;;1.40;1.00;;;;;;;8.24;58.04;96967.06;5059571;28;20309;-70
2023/12/06 07:27:07;;;;;;;2.80;1.00;;;;;;;8.32;57.68;96972.38;5069891;28;20604;-70
2023/12/06 07:29:32;;;;;;;0.93;0.80;;;;;;;8.28;58.13;96969.25;5069181;28;20209;-70
2023/12/06 07:31:58;;;;;;;1.10;0.97;;;;;;;8.30;57.71;96975.16;5071013;28;20259;-71
2023/12/06 07:34:24;;;;;;;3.03;0.80;;;;;;;8.36;57.52;96984.19;5062151;28;20199;-70
2023/12/06 07:36:49;;;;;;;1.23;0.77;;;;;;;8.30;58.50;96990.81;5069170;28;20218;-70
2023/12/06 07:39:14;;;;;;;1.50;1.00;;;;;;;8.37;57.85;96995.50;5066349;28;20206;-69
2023/12/06 07:41:40;;;;;;;3.00;0.80;;;;;;;8.35;57.75;96990.38;5057477;28;20186;-70
2023/12/06 07:44:06;;;;;;;2.10;1.10;;;;;;;8.30;58.13;96993.44;5064730;28;20206;-70
2023/12/06 07:46:31;;;;;;;1.90;1.07;;;;;;;8.32;58.34;96992.47;5066376;28;20263;-70
2023/12/06 07:48:56;;;;;;;5.30;1.20;;;;;;;8.22;58.43;97002.94;5065991;28;20174;-70
2023/12/06 07:51:22;;;;;;;2.27;1.30;;;;;;;8.30;57.75;96996.03;5071347;28;20346;-72
2023/12/06 07:53:48;;;;;;;1.90;1.30;;;;;;;8.36;58.06;96999.06;5066600;28;20202;-70
2023/12/06 07:56:14;;;;;;;2.03;1.43;;;;;;;8.39;58.32;97015.25;5066322;28;20174;-72
2023/12/06 07:58:39;;;;;;;1.60;1.10;;;;;;;8.36;57.71;97019.97;5055903;28;20460;-71
2023/12/06 08:01:05;;;;;;;1.00;0.80;;;;;;;8.39;57.89;97015.25;5050024;28;20670;-70
2023/12/06 08:03:31;;;;;;;1.17;1.00;;;;;;;8.39;58.32;97017.88;5062305;28;20209;-69
2023/12/06 08:05:59;;;;;;;1.23;1.13;;;;;;;8.41;58.02;97021.16;5065265;28;20417;-70
2023/12/06 08:08:26;;;;;;;5.83;1.50;;;;;;;8.39;58.18;97024.88;5063222;28;20179;-70
2023/12/06 08:10:52;;;;;;;1.37;1.27;;;;;;;8.32;58.31;97032.44;5069120;28;20421;-69
2023/12/06 08:13:18;;;;;;;1.70;1.40;;;;;;;8.37;58.40;97038.09;5068128;28;20456;-71
2023/12/06 08:15:44;;;;;;;4.63;1.50;;;;;;;8.42;57.85;97040.25;5061363;28;20428;-69
2023/12/06 08:18:09;;;;;;;1.87;1.70;;;;;;;8.43;58.20;97047.13;5068884;28;20487;-70
2023/12/06 08:20:35;;;;;;;2.80;2.23;;;;;;;8.48;58.16;97049.34;5065488;28;20269;-70
2023/12/06 08:23:02;;;;;;;2.90;1.73;;;;;;;8.50;58.14;97055.25;5061810;28;20225;-69
2023/12/06 08:25:27;;;;;;;2.87;1.80;;;;;;;8.41;57.71;97055.13;5061614;28;20178;-70
2023/12/06 08:27:53;;;;;;;5.70;2.20;;;;;;;8.45;57.17;97063.50;5065821;28;20554;-69
2023/12/06 08:30:18;;;;;;;5.90;2.27;;;;;;;8.51;57.52;97059.50;5066249;28;20186;-71
2023/12/06 08:32:45;;;;;;;2.70;2.40;;;;;;;8.55;57.13;97064.31;5057115;28;20175;-71
2023/12/06 08:35:10;;;;;;;2.83;2.63;;;;;;;8.57;57.35;97066.75;5063639;28;20240;-70
2023/12/06 08:37:36;;;;;;;4.57;3.30;;;;;;;8.55;56.87;97076.56;5067317;28;20428;-70
2023/12/06 08:40:02;;;;;;;4.30;3.70;;;;;;;8.46;56.93;97078.19;5068205;28;20622;-69
2023/12/06 08:42:28;;;;;;;4.23;3.83;;;;;;;8.50;56.74;97087.44;5066055;28;20182;-70
2023/12/06 08:44:53;;;;;;;5.20;4.70;;;;;;;8.43;57.07;97084.53;5068352;28;20467;-71
2023/12/06 08:47:19;;;;;;;5.33;3.90;;;;;;;8.46;56.77;97084.22;5067645;28;20274;-71
2023/12/06 08:49:44;;;;;;;5.30;4.80;;;;;;;8.50;56.79;97090.03;5051437;28;20232;-70
2023/12/06 08:52:10;;;;;;;5.83;5.30;;;;;;;8.47;56.55;97090.28;5063326;28;20205;-69
2023/12/06 08:54:37;;;;;;;6.30;5.70;;;;;;;8.50;56.23;97094.44;5061357;28;20206;-70
2023/12/06 08:57:02;;;;;;;5.97;5.30;;;;;;;8.54;56.49;97101.03;5062132;28;20194;-71
2023/12/06 08:59:29;;;;;;;6.13;5.53;;;;;;;8.55;56.59;97098.25;5056001;28;20467;-69
2023/12/06 09:01:54;;;;;;;6.23;5.63;;;;;;;8.54;55.68;97103.66;5067823;28;20186;-70
2023/12/06 09:04:20;;;;;;;6.80;6.10;;;;;;;8.46;55.88;97105.13;5067560;28;20444;-70
2023/12/06 09:06:45;;;;;;;6.80;6.13;;;;;;;8.49;55.96;97108.47;5060461;28;20570;-70
2023/12/06 09:09:11;;;;;;;6.90;6.20;;;;;;;8.50;55.27;97107.50;5068025;28;20182;-69
2023/12/06 09:11:36;;;;;;;6.93;6.30;;;;;;;8.52;56.00;97109.00;5065854;28;20183;-70
2023/12/06 09:14:02;;;;;;;7.10;6.30;;;;;;;8.55;55.51;97110.50;5061477;28;20206;-69
2023/12/06 09:16:27;;;;;;;6.43;5.80;;;;;;;8.55;55.35;97115.75;5067354;28;20227;-71
2023/12/06 09:18:53;;;;;;;7.07;6.37;;;;;;;8.46;56.04;97123.41;5056764;28;20259;-71
2023/12/06 09:21:19;;;;;;;7.93;7.13;;;;;;;8.50;55.26;97123.16;5067700;28;20649;-70
2023/12/06 09:23:44;;;;;;;7.23;6.50;;;;;;;8.49;55.72;97124.97;5067191;28;20204;-69
2023/12/06 09:26:09;;;;;;;8.57;6.60;;;;;;;8.46;55.91;97140.88;5063427;28;20288;-71
2023/12/06 09:28:35;;;;;;;8.30;7.17;;;;;;;8.45;55.92;97137.44;5067007;28;20216;-70
2023/12/06 09:31:01;;;;;;;8.50;7.03;;;;;;;8.49;55.57;97140.63;5066869;28;20255;-69
2023/12/06 09:33:26;;;;;;;7.47;5.90;;;;;;;8.46;55.69;97146.09;5067417;28;20444;-69
2023/12/06 09:35:52;;;;;;;7.53;6.73;;;;;;;8.48;55.36;97144.22;5053690;28;20182;-69
2023/12/06 09:38:17;;;;;;;7.63;6.90;;;;;;;8.41;55.55;97146.53;5056725;28;20684;-69
2023/12/06 09:40:43;;;;;;;7.00;6.30;;;;;;;8.38;55.37;97149.41;5058173;28;20269;-68
2023/12/06 09:43:08;;;;;;;13.03;7.77;;;;;;;8.35;55.65;97148.88;5067592;28;20651;-71
2023/12/06 09:45:34;;;;;;;7.93;7.13;;;;;;;8.31;55.86;97148.34;5047554;28;20267;-70
2023/12/06 09:48:00;;;;;;;8.93;7.40;;;;;;;8.29;56.10;97152.88;5064387;28;20262;-71
2023/12/06 09:50:26;;;;;;;9.10;7.90;;;;;;;8.23;55.61;97156.03;5067518;28;20185;-70
2023/12/06 09:52:55;;;;;;;10.83;7.37;;;;;;;8.20;55.44;97156.28;5053276;28;20428;-69
2023/12/06 09:55:23;;;;;;;9.47;7.80;;;;;;;8.19;55.80;97163.31;5071719;28;20182;-71
2023/12/06 09:57:52;;;;;;;10.33;9.17;;;;;;;8.17;56.09;97161.81;5070712;28;20467;-68
2023/12/06 10:00:18;;;;;;;10.63;8.97;;;;;;;8.15;56.22;97160.16;5070342;28;20433;-70
2023/12/06 10:02:53;;;;;;;9.67;7.93;;;;;;;8.14;55.72;97168.13;5060551;28;20425;-71
2023/12/06 10:05:19;;;;;;;8.40;7.50;;;;;;;8.18;55.96;97173.91;5059184;28;20714;-70
2023/12/06 10:07:45;;;;;;;7.93;7.03;;;;;;;8.14;56.22;97173.34;5070677;28;20511;-71
2023/12/06 10:10:21;;;;;;;9.23;8.30;;;;;;;8.09;56.56;97178.97;5069140;28;20410;-72
2023/12/06 10:12:55;;;;;;;9.87;8.57;;;;;;;8.12;56.68;97183.13;5070477;28;20431;-70
2023/12/06 10:15:21;;;;;;;8.97;7.63;;;;;;;8.13;55.63;97177.75;5070644;28;20413;-71
2023/12/06 10:17:46;;;;;;;11.27;8.20;;;;;;;8.21;56.16;97177.06;5068132;28;20509;-70
2023/12/06 10:20:13;;;;;;;9.90;8.60;;;;;;;8.25;56.18;97175.81;5067489;28;20488;-71
2023/12/06 10:22:38;;;;;;;8.70;7.80;;;;;;;8.27;56.01;97180.91;5061225;28;20179;-71
2023/12/06 10:25:06;;;;;;;8.10;7.30;;;;;;;8.34;56.16;97184.59;5059185;28;20445;-71
2023/12/06 10:27:32;;;;;;;8.77;7.87;;;;;;;8.37;55.20;97178.28;5069818;28;20217;-70
2023/12/06 10:29:59;;;;;;;9.60;8.47;;;;;;;8.39;55.27;97182.41;5069662;28;20448;-71
2023/12/06 10:32:25;;;;;;;9.20;8.10;;;;;;;8.39;55.58;97190.25;5070284;28;20499;-71
2023/12/06 10:34:52;;;;;;;8.60;7.70;;;;;;;8.41;55.27;97196.16;5070318;28;21158;-71
2023/12/06 10:37:20;;;;;;;14.23;8.97;;;;;;;8.45;55.07;97189.66;5070491;28;20460;-69
2023/12/06 10:39:48;;;;;;;9.67;8.47;;;;;;;8.41;55.89;97188.31;5052342;28;20449;-70
2023/12/06 10:42:17;;;;;;;8.77;7.50;;;;;;;8.44;55.90;97180.19;5070850;28;20424;-70
2023/12/06 10:44:43;;;;;;;10.83;8.57;;;;;;;8.49;54.98;97182.44;5067405;28;20445;-69
2023/12/06 10:47:10;;;;;;;7.73;6.90;;;;;;;8.39;55.37;97182.41;5047551;28;20424;-70
2023/12/06 10:49:37;;;;;;;8.10;6.87;;;;;;;8.45;54.79;97188.84;5061154;28;20178;-69
2023/12/06 10:52:03;;;;;;;8.33;7.40;;;;;;;8.42;54.96;97187.34;5052900;28;20528;-70
2023/12/06 10:54:29;;;;;;;8.87;6.80;;;;;;;8.46;54.59;97178.25;5062322;28;20437;-69
2023/12/06 10:56:56;;;;;;;8.37;7.13;;;;;;;8.52;54.63;97186.53;5069923;28;20452;-69
2023/12/06 10:59:25;;;;;;;9.70;7.80;;;;;;;8.52;54.95;97186.53;5069543;28;20461;-70
2023/12/06 11:01:54;;;;;;;9.07;7.50;;;;;;;8.49;55.03;97192.88;5065368;28;20579;-70
2023/12/06 11:04:21;;;;;;;9.57;7.50;;;;;;;8.53;54.92;97186.41;5070236;28;20486;-70
2023/12/06 11:07:05;;;;;;;9.77;7.77;;;;;;;8.53;54.55;97183.78;5051718;28;20499;-71
2023/12/06 11:10:05;;;;;;;10.73;8.00;;;;;;;8.58;55.31;97192.03;5070334;28;20452;-68
2023/12/06 11:12:52;;;;;;;12.23;6.97;;;;;;;8.64;55.15;97195.88;5049480;28;20480;-70
2023/12/06 11:15:47;;;;;;;8.13;6.97;;;;;;;8.64;55.19;97190.66;5068962;28;20439;-71
2023/12/06 11:18:13;;;;;;;8.00;7.20;;;;;;;8.55;54.10;97196.72;5045946;28;21126;-71
2023/12/06 11:20:39;;;;;;;10.23;7.80;;;;;;;8.53;54.86;97188.19;5051254;28;20417;-69
2023/12/06 11:23:05;;;;;;;9.80;7.40;;;;;;;8.56;54.78;97195.75;5051326;28;20179;-70
2023/12/06 11:25:31;;;;;;;15.40;7.50;;;;;;;8.59;54.79;97193.69;5070016;28;20500;-70
2023/12/06 11:27:56;;;;;;;10.13;7.33;;;;;;;8.52;55.19;97210.06;5066287;28;21204;-69
2023/12/06 11:30:22;;;;;;;10.20;8.07;;;;;;;8.55;54.79;97194.91;5062537;28;20832;-72
2023/12/06 11:32:53;;;;;;;10.13;8.03;;;;;;;8.59;54.87;97204.13;5067505;28;20273;-71
2023/12/06 11:35:19;;;;;;;9.50;6.90;;;;;;;8.61;55.05;97206.59;5038694;28;20178;-71